Time;durP1;ratioP1;P1;durP2;ratioP2;P2;SDS_P1;SDS_P2;PMS_P1;PMS_P2;Temp;Humidity;BMP_temperature;BMP_pressure;BME280_temperature;BME280_humidity;BME280_pressure;Samples;Min_cycle;Max_cycle;Signal;HPM_P1;HPM_P2
2023/07/05 00:00:59;;;;;;;4.32;2.00;;;20.30;99.90;;;20.57;100.00;100120.06;5220808;28;20049;-50
2023/07/05 00:03:38;;;;;;;3.20;1.80;;;20.20;99.90;;;20.62;100.00;100112.03;5221129;28;20048;-49
2023/07/05 00:06:10;;;;;;;2.55;1.70;;;20.20;99.90;;;20.63;100.00;100104.06;5217323;28;20478;-48
2023/07/05 00:08:42;;;;;;;3.80;1.73;;;20.20;99.90;;;20.65;100.00;100083.72;5220415;28;20051;-49
2023/07/05 00:11:16;;;;;;;2.95;2.00;;;20.30;99.90;;;20.64;100.00;100083.75;5219932;28;20445;-49
2023/07/05 00:13:52;;;;;;;3.83;1.95;;;20.20;99.90;;;20.63;100.00;100072.28;5220086;28;20049;-48
2023/07/05 00:16:24;;;;;;;2.35;1.50;;;20.20;99.90;;;20.61;100.00;100079.41;5219646;28;20045;-49
2023/07/05 00:18:57;;;;;;;3.42;1.50;;;20.20;99.90;;;20.62;100.00;100070.53;5219203;28;20063;-49
2023/07/05 00:21:29;;;;;;;3.78;1.70;;;20.20;99.90;;;20.65;100.00;100059.88;5219356;28;20440;-49
2023/07/05 00:24:02;;;;;;;2.10;1.42;;;20.30;99.90;;;20.64;100.00;100057.28;5221017;28;20045;-49
2023/07/05 00:26:35;;;;;;;3.20;1.50;;;20.20;99.90;;;20.63;100.00;100048.47;5223648;28;20191;-49
2023/07/05 00:29:08;;;;;;;4.03;1.67;;;20.20;99.90;;;20.64;100.00;100046.69;5223573;28;20528;-49
2023/07/05 00:31:40;;;;;;;2.63;1.40;;;20.20;99.90;;;20.63;100.00;100035.22;5224613;28;20029;-49
2023/07/05 00:34:13;;;;;;;3.05;1.55;;;20.20;99.90;;;20.60;100.00;100037.91;5224773;28;20087;-48
2023/07/05 00:36:45;;;;;;;3.70;1.83;;;20.20;99.90;;;20.60;100.00;100032.63;5224248;28;20510;-48
2023/07/05 00:39:18;;;;;;;3.65;1.48;;;20.20;99.90;;;20.56;100.00;100041.53;5224112;28;20145;-49
2023/07/05 00:41:52;;;;;;;4.18;1.77;;;20.20;99.90;;;20.55;100.00;100042.44;5223277;28;20049;-49
2023/07/05 00:44:25;;;;;;;3.05;1.90;;;20.10;99.90;;;20.50;100.00;100037.22;5224419;28;20084;-49
2023/07/05 00:47:06;;;;;;;3.20;1.60;;;20.10;99.90;;;20.45;100.00;100041.72;5225595;28;20051;-50
2023/07/05 00:49:39;;;;;;;3.03;1.50;;;20.10;99.90;;;20.41;100.00;100025.88;5223852;28;20140;-49
2023/07/05 00:52:14;;;;;;;3.90;1.38;;;20.10;99.90;;;20.37;100.00;100025.06;5224408;28;20048;-49
2023/07/05 00:54:51;;;;;;;2.55;1.50;;;20.00;99.90;;;20.38;100.00;100018.00;5224086;28;20044;-48
2023/07/05 00:57:30;;;;;;;2.63;1.40;;;20.00;99.90;;;20.35;100.00;100016.28;5224144;28;20044;-49
2023/07/05 01:00:12;;;;;;;3.92;1.60;;;20.00;99.90;;;20.33;100.00;100021.59;5223435;28;20406;-48
2023/07/05 01:02:51;;;;;;;2.97;1.60;;;20.00;99.90;;;20.36;100.00;100020.69;5223690;28;20052;-49
2023/07/05 01:05:25;;;;;;;2.25;1.30;;;20.00;99.90;;;20.33;100.00;100026.00;5224161;28;20041;-49
2023/07/05 01:08:03;;;;;;;1.65;1.27;;;20.00;99.90;;;20.29;100.00;100014.63;5223791;28;20573;-48
2023/07/05 01:10:36;;;;;;;1.73;1.30;;;19.90;99.90;;;20.23;100.00;100030.59;5223866;28;20048;-48
2023/07/05 01:13:15;;;;;;;3.17;1.58;;;19.90;99.90;;;20.20;100.00;100014.75;5215531;28;20049;-49
2023/07/05 01:15:57;;;;;;;;;;;19.80;99.90;;;20.15;100.00;100008.69;5224054;28;20532;-49
2023/07/05 01:18:37;;;;;;;2.70;1.38;;;19.80;99.90;;;20.14;100.00;100012.19;5223792;28;19929;-48
2023/07/05 01:21:19;;;;;;;3.72;1.65;;;19.80;99.90;;;20.08;100.00;100001.72;5215971;28;20045;-49
2023/07/05 01:24:30;;;;;;;2.83;1.55;;;19.70;99.90;;;20.01;100.00;99992.16;5223846;28;20132;-49
2023/07/05 01:27:44;;;;;;;3.70;1.65;;;19.70;99.90;;;19.96;100.00;99994.03;5223454;28;20095;-48
2023/07/05 01:30:41;;;;;;;2.25;1.50;;;19.60;99.90;;;19.91;100.00;99990.56;5223655;28;20510;-48
2023/07/05 01:33:20;;;;;;;2.70;1.50;;;19.60;99.90;;;19.91;100.00;99985.28;5216091;28;20040;-48
2023/07/05 01:35:56;;;;;;;2.25;1.55;;;19.60;99.90;;;19.94;100.00;99985.22;5222470;28;20045;-49
2023/07/05 01:38:28;;;;;;;3.10;1.48;;;19.60;99.90;;;19.92;100.00;99992.31;5223102;28;20040;-49
2023/07/05 01:41:04;;;;;;;2.63;1.42;;;19.60;99.90;;;19.92;100.00;99982.59;5223191;28;20080;-48
2023/07/05 01:43:40;;;;;;;1.77;1.40;;;19.60;99.90;;;19.96;100.00;99994.03;5223416;28;20102;-49
2023/07/05 01:46:27;;;;;;;2.20;1.40;;;19.50;99.90;;;19.98;100.00;99986.91;5223138;28;20045;-50
2023/07/05 01:49:28;;;;;;;2.40;1.42;;;19.60;99.90;;;19.96;100.00;99983.44;5222980;28;20053;-49
2023/07/05 01:52:10;;;;;;;2.70;1.40;;;19.60;99.90;;;19.98;100.00;99968.41;5224495;28;20041;-49
2023/07/05 01:54:50;;;;;;;1.85;1.27;;;19.60;99.90;;;19.92;100.00;99971.16;5224219;28;20067;-48
2023/07/05 01:57:26;;;;;;;2.35;1.48;;;19.50;99.90;;;19.91;100.00;99957.06;5223010;28;20111;-48
2023/07/05 02:00:04;;;;;;;2.60;1.30;;;19.60;99.90;;;19.90;100.00;99951.78;5222798;28;20194;-48
2023/07/05 02:02:47;;;;;;;4.60;1.60;;;19.50;99.90;;;19.89;100.00;99936.84;5224197;28;20057;-49
2023/07/05 02:05:23;;;;;;;2.58;1.30;;;19.50;99.90;;;19.90;100.00;99931.50;5222920;28;20033;-48
2023/07/05 02:07:59;;;;;;;3.17;1.48;;;19.50;99.90;;;19.87;100.00;99926.25;5222833;28;20049;-48
2023/07/05 02:10:32;;;;;;;;;;;19.50;99.90;;;19.84;100.00;99920.16;5223200;28;20037;-48
2023/07/05 02:13:08;;;;;;;2.92;1.40;;;19.50;99.90;;;19.83;100.00;99914.00;5222622;28;19925;-48
2023/07/05 02:15:41;;;;;;;3.28;1.88;;;19.50;99.90;;;19.84;100.00;99926.31;5222582;28;20452;-48
2023/07/05 02:18:13;;;;;;;2.85;1.33;;;19.50;99.90;;;19.82;100.00;99920.16;5214597;28;20052;-49
2023/07/05 02:20:47;;;;;;;2.72;1.48;;;19.50;99.90;;;19.84;100.00;99933.38;5222599;28;20052;-49
2023/07/05 02:23:19;;;;;;;1.58;1.40;;;19.50;99.90;;;19.82;100.00;99927.22;5222882;28;20053;-48
2023/07/05 02:25:53;;;;;;;2.65;1.60;;;19.50;99.90;;;19.82;100.00;99927.22;5223729;28;20562;-49
2023/07/05 02:28:25;;;;;;;2.97;1.75;;;19.50;99.90;;;19.79;100.00;99931.69;5222140;28;20045;-48
2023/07/05 02:30:57;;;;;;;2.42;1.65;;;19.50;99.90;;;19.75;100.00;99922.03;5222328;28;20067;-49
2023/07/05 02:33:30;;;;;;;2.22;1.65;;;19.40;99.90;;;19.75;100.00;99943.19;5222526;28;20048;-50
2023/07/05 02:36:10;;;;;;;3.45;1.58;;;19.40;99.90;;;19.73;100.00;99933.56;5222542;28;20053;-49
2023/07/05 02:38:43;;;;;;;4.45;2.13;;;19.40;99.90;;;19.71;100.00;99936.22;5221753;28;20045;-50
2023/07/05 02:41:15;;;;;;;2.45;1.73;;;19.40;99.90;;;19.68;100.00;99933.63;5222063;28;20453;-48
2023/07/05 02:43:48;;;;;;;2.67;1.50;;;19.30;99.90;;;19.66;100.00;99939.84;5222209;28;20056;-48
2023/07/05 02:46:20;;;;;;;4.78;1.80;;;19.30;99.90;;;19.61;100.00;99933.75;5220828;28;20053;-48
2023/07/05 02:48:55;;;;;;;3.33;1.35;;;19.30;99.90;;;19.54;100.00;99943.50;5221629;28;20052;-49
2023/07/05 02:51:29;;;;;;;5.43;1.67;;;19.30;99.90;;;19.48;100.00;99938.31;5222130;28;20103;-48
2023/07/05 02:54:01;;;;;;;2.72;1.50;;;19.20;99.90;;;19.48;100.00;99948.88;5221933;28;20041;-48
2023/07/05 02:56:35;;;;;;;3.60;1.73;;;19.20;99.90;;;19.48;100.00;99957.69;5221736;28;20044;-49
2023/07/05 02:59:07;;;;;;;2.90;1.63;;;19.20;99.90;;;19.51;100.00;99960.28;5221379;28;20402;-49
2023/07/05 03:01:40;;;;;;;2.95;1.60;;;19.20;99.90;;;19.50;100.00;99957.69;5221928;28;20551;-49
2023/07/05 03:04:13;;;;;;;4.72;1.50;;;19.20;99.90;;;19.51;100.00;99977.94;5222967;28;20040;-47
2023/07/05 03:06:47;;;;;;;3.50;1.75;;;19.20;99.90;;;19.57;100.00;99983.13;5221781;28;20418;-49
2023/07/05 03:09:19;;;;;;;4.03;1.67;;;19.20;99.90;;;19.58;100.00;99979.63;5222780;28;20041;-48
2023/07/05 03:11:52;;;;;;;2.58;1.40;;;19.20;99.90;;;19.57;100.00;99979.59;5221261;28;20045;-49
2023/07/05 03:14:24;;;;;;;4.25;1.75;;;19.20;99.90;;;19.49;100.00;99983.22;5221738;28;20052;-49
2023/07/05 03:16:56;;;;;;;2.28;1.10;;;19.10;99.90;;;19.45;100.00;99980.66;5221248;28;20596;-48
2023/07/05 03:19:29;;;;;;;2.13;1.35;;;19.10;99.90;;;19.42;100.00;99978.03;5221695;28;20045;-48
2023/07/05 03:22:02;;;;;;;2.78;1.30;;;19.10;99.90;;;19.39;100.00;99973.69;5221343;28;20047;-48
2023/07/05 03:24:35;;;;;;;3.40;1.40;;;19.00;99.90;;;19.38;100.00;99987.78;5221555;28;20079;-48
2023/07/05 03:27:07;;;;;;;2.05;1.15;;;19.00;99.90;;;19.34;100.00;100006.34;5221084;28;20402;-48
2023/07/05 03:29:40;;;;;;;2.20;1.02;;;19.00;99.90;;;19.31;100.00;100014.31;5221386;28;20049;-49
2023/07/05 03:32:17;;;;;;;1.25;0.90;;;19.00;99.90;;;19.27;100.00;100023.19;5221151;28;20056;-47
2023/07/05 03:34:51;;;;;;;2.70;1.20;;;18.90;99.90;;;19.22;100.00;100028.50;5220967;28;20497;-47
2023/07/05 03:37:25;;;;;;;1.42;1.10;;;18.80;99.90;;;19.19;100.00;100039.13;5221123;28;20044;-47
2023/07/05 03:40:00;;;;;;;1.65;0.90;;;18.80;99.90;;;19.13;100.00;100037.44;5220837;28;20418;-48
2023/07/05 03:42:32;;;;;;;2.60;1.00;;;18.80;99.90;;;19.11;100.00;100033.94;5221386;28;20041;-49
2023/07/05 03:45:06;;;;;;;2.20;1.10;;;18.70;99.90;;;19.07;100.00;100032.22;5220968;28;20053;-48
2023/07/05 03:47:38;;;;;;;1.17;0.85;;;18.70;99.90;;;19.03;100.00;100034.91;5221267;28;20410;-49
2023/07/05 03:50:14;;;;;;;2.85;0.82;;;18.70;99.90;;;19.01;100.00;100048.13;5220245;28;20063;-48
2023/07/05 03:52:47;;;;;;;2.60;1.10;;;18.60;99.90;;;18.98;100.00;100064.03;5221162;28;20067;-48
2023/07/05 03:55:20;;;;;;;1.75;1.00;;;18.60;99.90;;;18.96;100.00;100065.78;5221029;28;20045;-48
2023/07/05 03:57:52;;;;;;;3.03;0.85;;;18.60;99.90;;;18.94;100.00;100080.78;5220256;28;20051;-48
2023/07/05 04:00:25;;;;;;;1.60;0.93;;;18.60;99.90;;;18.89;100.00;100090.53;5220869;28;20052;-49
2023/07/05 04:02:57;;;;;;;1.52;0.88;;;18.50;99.90;;;18.86;100.00;100096.72;5220856;28;20135;-48
2023/07/05 04:05:30;;;;;;;2.28;1.08;;;18.50;99.90;;;18.83;100.00;100106.41;5221174;28;20052;-48
2023/07/05 04:08:04;;;;;;;1.95;0.95;;;18.40;99.90;;;18.79;100.00;100123.19;5220439;28;20570;-48
2023/07/05 04:10:36;;;;;;;1.33;0.90;;;18.40;99.90;;;18.70;100.00;100130.28;5220759;28;20045;-48
2023/07/05 04:13:09;;;;;;;2.15;0.90;;;18.30;99.90;;;18.60;100.00;100131.25;5221005;28;20047;-48
2023/07/05 04:15:41;;;;;;;1.15;0.90;;;18.30;99.90;;;18.48;100.00;100136.63;5221179;28;20063;-47
2023/07/05 04:18:14;;;;;;;2.35;1.00;;;18.20;99.90;;;18.36;100.00;100132.31;5220399;28;20402;-49
2023/07/05 04:20:46;;;;;;;1.73;0.90;;;18.00;99.90;;;18.27;100.00;100131.50;5221159;28;20091;-48
2023/07/05 04:23:20;;;;;;;1.17;0.80;;;18.00;99.90;;;18.17;100.00;100125.41;5213195;28;20080;-48
2023/07/05 04:26:00;;;;;;;2.13;1.10;;;17.90;99.90;;;18.11;100.00;100136.88;5220697;28;20136;-48
2023/07/05 04:28:34;;;;;;;1.27;0.82;;;17.80;99.90;;;18.04;100.00;100140.44;5220799;28;20037;-48
2023/07/05 04:31:09;;;;;;;1.85;0.90;;;17.70;99.90;;;18.00;100.00;100148.38;5220553;28;20144;-48
2023/07/05 04:33:41;;;;;;;1.65;0.95;;;17.70;99.90;;;17.95;100.00;100145.78;5220874;28;20415;-48
2023/07/05 04:36:20;;;;;;;2.67;0.90;;;17.60;99.90;;;17.92;100.00;100151.03;5220728;28;20406;-48
2023/07/05 04:38:54;;;;;;;1.67;0.85;;;17.60;99.90;;;17.89;100.00;100161.63;5220592;28;20045;-48
2023/07/05 04:41:27;;;;;;;2.15;1.08;;;17.60;99.90;;;17.89;100.00;100162.50;5222240;28;20063;-47
2023/07/05 04:43:59;;;;;;;1.75;1.00;;;17.60;99.90;;;17.92;100.00;100161.59;5221396;28;20349;-48
2023/07/05 04:46:32;;;;;;;2.90;1.35;;;17.60;99.90;;;17.94;100.00;100170.38;5221148;28;20053;-47
2023/07/05 04:49:04;;;;;;;1.88;1.00;;;17.60;99.90;;;17.99;100.00;100173.84;5220733;28;20057;-48
2023/07/05 04:51:36;;;;;;;2.47;1.08;;;17.60;99.90;;;18.04;100.00;100172.06;5220726;28;20045;-47
2023/07/05 04:54:10;;;;;;;1.90;1.20;;;17.70;99.90;;;18.08;100.00;100179.09;5220392;28;20053;-48
2023/07/05 04:56:43;;;;;;;1.90;0.95;;;17.70;99.90;;;18.07;100.00;100182.63;5220742;28;20055;-47
2023/07/05 04:59:15;;;;;;;2.05;1.00;;;17.70;99.90;;;18.12;100.00;100183.44;5220044;28;20055;-48
2023/07/05 05:01:48;;;;;;;1.63;0.95;;;17.80;99.90;;;18.24;100.00;100179.00;5220202;28;20045;-48
2023/07/05 05:04:20;;;;;;;2.30;1.33;;;17.90;99.90;;;18.40;100.00;100178.03;5212432;28;20554;-48
2023/07/05 05:06:52;;;;;;;4.18;1.65;;;18.00;99.90;;;18.60;100.00;100191.94;5220360;28;20467;-48
2023/07/05 05:09:26;;;;;;;3.35;1.70;;;18.10;99.90;;;18.94;100.00;100194.34;5220282;28;20057;-48
2023/07/05 05:11:59;;;;;;;1.98;1.17;;;18.40;99.90;;;19.38;100.00;100191.28;5224106;28;20421;-48
2023/07/05 05:14:33;;;;;;;3.03;1.02;;;18.80;99.90;;;19.81;100.00;100189.91;5224147;28;20148;-50
2023/07/05 05:17:05;;;;;;;3.13;1.20;;;19.20;99.90;;;20.26;100.00;100184.00;5223797;28;20061;-49
2023/07/05 05:19:38;;;;;;;2.22;1.25;;;19.50;99.90;;;20.73;96.06;100200.09;5223857;28;20040;-49
2023/07/05 05:22:12;;;;;;;2.83;1.55;;;20.00;99.90;;;21.17;93.19;100207.28;5223564;28;20597;-49
2023/07/05 05:24:46;;;;;;;3.92;1.60;;;20.40;99.90;;;21.50;90.18;100210.25;5224274;28;20041;-49
2023/07/05 05:27:18;;;;;;;3.40;1.50;;;20.70;99.90;;;21.66;87.12;100211.72;5223452;28;20067;-49
2023/07/05 05:29:51;;;;;;;3.47;1.48;;;21.00;98.80;;;21.78;84.49;100216.78;5223496;28;20426;-49
2023/07/05 05:32:23;;;;;;;3.22;1.60;;;21.10;97.50;;;21.86;84.09;100214.84;5216189;28;20163;-50
2023/07/05 05:34:55;;;;;;;3.90;1.67;;;21.20;97.10;;;22.02;83.40;100222.47;5223552;28;20055;-49
2023/07/05 05:37:28;;;;;;;6.15;1.90;;;21.40;96.60;;;22.29;82.01;100226.34;5223512;28;20052;-50
2023/07/05 05:40:02;;;;;;;4.13;1.80;;;21.60;96.00;;;22.60;80.04;100223.88;5223183;28;20056;-50
2023/07/05 05:42:34;;;;;;;3.63;1.60;;;21.90;95.10;;;22.74;78.65;100224.41;5223543;28;20059;-49
2023/07/05 05:45:08;;;;;;;4.45;1.75;;;22.00;94.20;;;22.85;77.65;100230.34;5223502;28;20043;-49
2023/07/05 05:47:40;;;;;;;3.85;1.88;;;22.20;93.60;;;22.95;76.85;100237.22;5223312;28;20055;-49
2023/07/05 05:50:13;;;;;;;4.43;1.83;;;22.30;92.90;;;22.92;76.88;100247.03;5222630;28;20414;-48
2023/07/05 05:52:45;;;;;;;3.88;1.73;;;22.30;92.80;;;22.83;75.71;100247.25;5223456;28;20056;-49
2023/07/05 05:55:21;;;;;;;3.35;1.80;;;22.20;92.00;;;22.41;76.33;100261.47;5223060;28;20140;-49
2023/07/05 05:57:53;;;;;;;4.30;1.90;;;21.90;91.90;;;21.99;78.52;100249.97;5222716;28;20045;-49
2023/07/05 06:00:26;;;;;;;3.90;1.58;;;21.60;92.70;;;21.73;79.18;100244.31;5222569;28;20149;-49
2023/07/05 06:02:58;;;;;;;3.25;1.67;;;21.30;93.00;;;21.69;79.47;100232.88;5223059;28;20055;-49
2023/07/05 06:05:32;;;;;;;4.40;2.03;;;21.30;93.20;;;21.95;79.75;100246.47;5223095;28;20131;-48
2023/07/05 06:08:05;;;;;;;5.18;2.00;;;21.40;93.40;;;22.43;78.13;100257.00;5222849;28;20076;-48
2023/07/05 06:10:39;;;;;;;4.20;1.48;;;21.70;92.90;;;22.84;75.38;100259.63;5223109;28;20538;-48
2023/07/05 06:13:11;;;;;;;3.88;1.63;;;22.00;91.70;;;23.04;72.34;100261.81;5222662;28;20525;-48
2023/07/05 06:15:44;;;;;;;4.00;1.50;;;22.30;90.10;;;22.97;71.93;100261.97;5222989;28;20045;-48
2023/07/05 06:18:16;;;;;;;3.47;1.75;;;22.30;89.10;;;23.04;72.66;100267.13;5222378;28;20040;-49
2023/07/05 06:20:48;;;;;;;4.57;1.60;;;22.40;89.90;;;23.14;70.62;100274.81;5222500;28;20132;-49
2023/07/05 06:23:21;;;;;;;4.72;1.98;;;22.50;87.40;;;23.35;70.89;100289.38;5222895;28;20056;-49
2023/07/05 06:25:55;;;;;;;3.83;1.73;;;22.60;87.50;;;23.52;68.56;100280.94;5222833;28;20569;-49
2023/07/05 06:28:27;;;;;;;2.85;1.40;;;22.80;84.60;;;23.42;69.05;100293.63;5222377;28;20044;-49
2023/07/05 06:31:06;;;;;;;3.08;1.40;;;22.80;84.60;;;23.09;67.65;100297.16;5222432;28;20139;-48
2023/07/05 06:33:39;;;;;;;2.08;1.10;;;22.50;82.60;;;22.65;69.04;100301.69;5220925;28;20071;-49
2023/07/05 06:36:11;;;;;;;2.17;1.35;;;22.20;83.10;;;22.24;69.82;100298.16;5222409;28;20697;-48
2023/07/05 06:38:44;;;;;;;3.47;1.30;;;21.80;83.50;;;21.89;70.41;100298.81;5221238;28;20053;-48
2023/07/05 06:41:18;;;;;;;2.10;1.05;;;21.50;84.10;;;21.44;71.56;100293.44;5220203;28;20045;-48
2023/07/05 06:43:51;;;;;;;2.90;1.13;;;21.10;84.80;;;21.13;73.63;100307.19;5221602;28;20040;-49
2023/07/05 06:46:23;;;;;;;2.95;1.50;;;20.80;86.80;;;20.91;73.79;100294.28;5220540;28;20049;-50
2023/07/05 06:48:55;;;;;;;2.40;1.00;;;20.60;87.10;;;20.73;75.63;100316.63;5219629;28;20037;-47
2023/07/05 06:51:28;;;;;;;2.53;0.98;;;20.40;89.00;;;20.47;76.77;100328.44;5221091;28;20305;-49
2023/07/05 06:54:00;;;;;;;2.13;1.20;;;20.20;89.90;;;20.21;78.89;100320.84;5221659;28;20399;-49
2023/07/05 06:56:36;;;;;;;1.88;1.10;;;19.90;90.80;;;20.04;81.78;100330.72;5221088;28;20805;-50
2023/07/05 06:59:08;;;;;;;2.95;1.20;;;19.70;91.90;;;20.03;83.45;100339.56;5220895;28;20045;-46
2023/07/05 07:01:41;;;;;;;2.25;1.08;;;19.70;92.90;;;20.08;82.61;100337.72;5221974;28;20120;-45
2023/07/05 07:04:13;;;;;;;1.83;1.13;;;19.70;92.80;;;20.15;81.69;100339.44;5218132;28;20532;-47
2023/07/05 07:06:46;;;;;;;3.20;1.17;;;19.70;92.60;;;20.21;80.98;100339.34;5221806;28;20410;-46
2023/07/05 07:09:18;;;;;;;2.45;1.00;;;19.80;92.40;;;20.24;80.88;100341.94;5221412;28;20130;-47
2023/07/05 07:11:52;;;;;;;3.10;1.33;;;19.80;92.40;;;20.30;80.19;100336.59;5221817;28;20414;-47
2023/07/05 07:14:25;;;;;;;1.95;1.05;;;19.80;92.10;;;20.43;79.64;100333.78;5221892;28;20056;-47
2023/07/05 07:16:57;;;;;;;3.15;1.23;;;19.90;91.90;;;20.65;78.76;100343.22;5221737;28;20049;-47
2023/07/05 07:19:30;;;;;;;3.38;1.25;;;20.10;91.80;;;20.92;78.69;100343.72;5221551;28;20057;-47
2023/07/05 07:22:02;;;;;;;2.33;1.00;;;20.30;91.80;;;21.10;76.83;100354.94;5221616;28;20048;-47
2023/07/05 07:24:38;;;;;;;2.08;1.02;;;20.50;91.00;;;21.20;76.60;100358.34;5221824;28;20049;-47
2023/07/05 07:27:12;;;;;;;2.65;1.02;;;20.60;90.80;;;21.26;75.43;100349.41;5221196;28;20291;-50
2023/07/05 07:29:45;;;;;;;1.58;1.00;;;20.70;90.30;;;21.12;75.34;100349.59;5221174;28;20147;-47
2023/07/05 07:32:18;;;;;;;1.60;0.88;;;20.60;90.00;;;20.95;75.39;100354.28;5220513;28;20049;-47
2023/07/05 07:34:55;;;;;;;1.75;0.95;;;20.50;89.90;;;20.75;76.53;100358.09;5221361;28;20052;-47
2023/07/05 07:37:27;;;;;;;2.40;0.75;;;20.40;90.30;;;20.61;77.43;100375.09;5213397;28;20041;-45
2023/07/05 07:39:59;;;;;;;2.05;0.90;;;20.20;90.50;;;20.53;77.94;100361.91;5221569;28;20052;-45
2023/07/05 07:42:36;;;;;;;2.47;0.95;;;20.10;90.80;;;20.46;77.83;100360.25;5221377;28;20045;-45
2023/07/05 07:45:10;;;;;;;1.45;0.90;;;20.10;90.80;;;20.40;78.70;100358.50;5221351;28;20056;-45
2023/07/05 07:47:42;;;;;;;1.25;0.80;;;20.00;91.10;;;20.38;79.39;100372.66;5221497;28;20053;-45
2023/07/05 07:50:15;;;;;;;1.75;0.80;;;20.00;91.40;;;20.40;79.12;100376.16;5220751;28;20062;-45
2023/07/05 07:52:50;;;;;;;2.95;0.82;;;19.90;91.40;;;20.32;79.56;100368.31;5221365;28;20049;-46
2023/07/05 07:55:23;;;;;;;1.48;0.80;;;19.90;91.50;;;20.27;79.67;100381.59;5221018;28;20418;-45
2023/07/05 07:57:56;;;;;;;1.58;0.93;;;19.90;91.60;;;20.31;79.36;100383.31;5221312;28;20049;-46
2023/07/05 08:00:29;;;;;;;1.25;0.90;;;19.90;91.60;;;20.35;79.33;100384.19;5220788;28;20045;-47
2023/07/05 08:03:01;;;;;;;1.52;0.65;;;19.90;91.60;;;20.37;77.50;100389.44;5221001;28;20059;-47
2023/07/05 08:05:34;;;;;;;1.17;0.50;;;19.90;90.80;;;20.31;78.06;100393.91;5221192;28;20041;-46
2023/07/05 08:08:06;;;;;;;0.93;0.65;;;19.80;90.90;;;20.29;78.61;100395.72;5221202;28;20057;-46
2023/07/05 08:10:38;;;;;;;1.55;0.70;;;19.80;91.20;;;20.25;78.35;100403.69;5221417;28;20041;-47
2023/07/05 08:13:12;;;;;;;0.73;0.70;;;19.80;91.10;;;20.20;78.19;100406.38;5221052;28;20052;-46
2023/07/05 08:15:44;;;;;;;1.67;0.70;;;19.80;91.00;;;20.11;78.76;100416.19;5221311;28;20505;-48
2023/07/05 08:18:17;;;;;;;3.08;0.75;;;19.70;91.10;;;20.01;78.83;100428.63;5220861;28;20049;-47
2023/07/05 08:20:49;;;;;;;1.13;0.50;;;19.60;91.10;;;20.03;79.67;100429.50;5221119;28;20428;-46
2023/07/05 08:23:22;;;;;;;1.67;0.73;;;19.60;91.50;;;20.19;79.62;100423.16;5220917;28;20045;-46
2023/07/05 08:25:55;;;;;;;1.17;0.57;;;19.80;91.60;;;20.53;78.57;100425.47;5220778;28;20056;-46
2023/07/05 08:28:30;;;;;;;1.17;0.70;;;19.90;91.40;;;20.78;77.52;100429.56;5220091;28;20099;-47
2023/07/05 08:31:05;;;;;;;1.27;0.77;;;20.10;91.10;;;21.48;75.92;100426.84;5220945;28;20464;-45
2023/07/05 08:33:39;;;;;;;2.08;0.90;;;20.50;90.90;;;22.82;72.55;100437.69;5220895;28;20055;-48
2023/07/05 08:36:20;;;;;;;1.20;0.60;;;21.10;90.20;;;23.61;68.71;100428.84;5220593;28;20041;-49
2023/07/05 08:38:54;;;;;;;0.98;0.60;;;21.70;87.30;;;24.03;67.56;100433.09;5220422;28;20068;-49
2023/07/05 08:41:42;;;;;;;0.88;0.52;;;22.10;85.80;;;25.03;64.60;100444.50;5220476;28;20049;-48
2023/07/05 08:44:22;;;;;;;1.13;0.70;;;22.70;84.00;;;25.59;62.58;100430.34;5221843;28;20594;-48
2023/07/05 08:47:00;;;;;;;;;;;23.20;81.80;;;25.03;62.63;100455.16;5224009;28;20051;-44
2023/07/05 08:49:38;;;;;;;1.23;0.50;;;23.20;80.50;;;24.38;63.16;100428.63;5220614;28;19925;-44
2023/07/05 08:52:21;;;;;;;1.15;0.73;;;23.00;79.80;;;23.97;63.47;100446.56;5222934;28;20059;-44
2023/07/05 08:55:01;;;;;;;2.70;0.60;;;22.80;79.60;;;23.39;64.38;100450.59;5224572;28;20143;-44
2023/07/05 08:57:40;;;;;;;1.20;0.60;;;22.40;79.80;;;22.81;64.80;100454.50;5216799;28;20056;-44
2023/07/05 09:00:18;;;;;;;1.67;0.80;;;22.00;79.40;;;22.44;65.59;100455.28;5224580;28;20214;-44
2023/07/05 09:02:51;;;;;;;1.15;0.70;;;21.70;80.00;;;22.15;67.06;100460.22;5224516;28;20136;-42
2023/07/05 09:05:34;;;;;;;2.55;0.57;;;21.50;81.20;;;21.91;67.95;100456.22;5224468;28;20532;-44
2023/07/05 09:08:20;;;;;;;1.83;0.60;;;21.30;82.00;;;21.67;67.63;100457.47;5224122;28;20041;-43
2023/07/05 09:10:56;;;;;;;1.50;0.60;;;21.00;81.60;;;21.55;68.27;100468.28;5224106;28;20095;-47
2023/07/05 09:13:35;;;;;;;2.38;0.88;;;21.00;82.20;;;21.47;69.25;100471.06;5223919;28;20522;-47
2023/07/05 09:16:19;;;;;;;2.08;0.70;;;20.90;83.00;;;22.60;66.54;100478.88;5223733;28;20052;-47
2023/07/05 09:19:06;;;;;;;2.45;0.70;;;21.30;82.60;;;23.46;63.64;100473.50;5223566;28;20414;-47
2023/07/05 09:21:45;;;;;;;1.00;0.57;;;21.80;80.10;;;23.74;62.78;100467.56;5223633;28;20049;-47
2023/07/05 09:24:24;;;;;;;3.13;0.68;;;22.20;79.00;;;23.65;63.22;100473.09;5223096;28;20049;-47
2023/07/05 09:27:07;;;;;;;2.80;0.85;;;22.30;78.90;;;24.20;62.63;100471.72;5221550;28;20430;-48
2023/07/05 09:29:47;;;;;;;2.28;0.90;;;22.70;78.50;;;24.88;60.01;100485.81;5218312;28;20049;-48
2023/07/05 09:32:29;;;;;;;2.80;0.68;;;23.20;76.50;;;24.97;59.52;100498.00;5211954;28;20162;-48
2023/07/05 09:35:13;;;;;;;2.67;0.70;;;23.40;76.20;;;25.47;58.85;100487.63;5223164;28;20048;-48
2023/07/05 09:37:56;;;;;;;2.20;0.70;;;23.80;75.30;;;25.70;57.11;100503.81;5216717;28;20040;-48
2023/07/05 09:40:33;;;;;;;1.27;0.60;;;24.20;72.70;;;25.69;57.29;100502.06;5214503;28;20051;-48
2023/07/05 09:43:15;;;;;;;2.08;0.80;;;24.40;72.60;;;25.54;55.97;100518.53;5222741;28;20143;-48
2023/07/05 09:45:48;;;;;;;2.40;0.90;;;24.40;70.60;;;25.06;56.34;100513.78;5223071;28;20060;-48
2023/07/05 09:48:22;;;;;;;2.03;0.80;;;24.20;69.80;;;24.77;56.77;100529.69;5222523;28;20056;-48
2023/07/05 09:50:54;;;;;;;0.85;0.70;;;24.00;70.30;;;24.53;57.81;100516.13;5223163;28;20067;-48
2023/07/05 09:53:41;;;;;;;2.45;0.70;;;23.80;71.00;;;24.23;58.05;100524.88;5221206;28;20053;-48
2023/07/05 09:56:17;;;;;;;1.45;0.90;;;23.50;71.00;;;24.08;58.59;100505.72;5221685;28;20056;-48
2023/07/05 09:58:53;;;;;;;1.33;0.68;;;23.40;71.50;;;24.25;59.35;100507.06;5222193;28;20041;-47
2023/07/05 10:01:25;;;;;;;1.02;0.63;;;23.40;72.40;;;24.32;58.66;100514.00;5232921;28;20060;-47
2023/07/05 10:04:05;;;;;;;2.03;0.82;;;23.50;72.00;;;24.33;58.76;100506.00;5222873;28;20060;-48
2023/07/05 10:06:43;;;;;;;2.42;0.68;;;23.50;71.80;;;24.27;58.62;100515.91;5207126;28;20029;-48
2023/07/05 10:09:19;;;;;;;3.47;0.82;;;23.50;71.30;;;24.20;58.73;100506.34;5220194;28;20128;-48
2023/07/05 10:11:54;;;;;;;1.50;0.80;;;23.40;71.40;;;24.26;58.95;100531.03;5226877;28;20041;-48
2023/07/05 10:14:29;;;;;;;1.60;0.60;;;23.40;71.70;;;24.26;58.54;100524.84;5230043;28;20044;-48
2023/07/05 10:17:07;;;;;;;3.08;0.88;;;23.50;71.50;;;24.22;59.00;100525.81;5213873;28;20053;-48
2023/07/05 10:19:46;;;;;;;1.20;0.60;;;23.50;72.00;;;24.28;58.07;100528.31;5231627;28;20079;-48
2023/07/05 10:22:27;;;;;;;2.00;0.88;;;23.50;70.90;;;24.23;57.91;100546.19;5221987;28;20056;-46
2023/07/05 10:25:07;;;;;;;2.38;0.80;;;23.50;70.60;;;24.32;57.97;100546.84;5222567;28;20059;-47
2023/07/05 10:27:43;;;;;;;2.15;0.82;;;23.50;70.50;;;24.44;56.17;100540.34;5221559;28;20041;-47
2023/07/05 10:30:19;;;;;;;2.17;1.13;;;23.60;68.70;;;24.46;56.10;100543.00;5220025;28;20856;-48
2023/07/05 10:33:16;;;;;;;2.20;0.80;;;23.70;68.40;;;24.53;55.92;100531.25;5222921;28;20045;-46
2023/07/05 10:35:58;;;;;;;2.63;0.60;;;23.70;68.30;;;24.62;57.49;100531.00;5222783;28;20049;-46
2023/07/05 10:38:33;;;;;;;1.13;0.70;;;23.80;69.70;;;24.86;56.68;100545.44;5222394;28;20102;-46
2023/07/05 10:41:20;;;;;;;1.90;0.73;;;23.90;69.50;;;24.87;56.67;100540.06;5216572;28;20049;-47
2023/07/05 10:43:58;;;;;;;1.75;0.70;;;24.00;69.10;;;25.05;56.83;100559.16;5222024;28;20052;-47